Howes, South Dakota
Current Conditions -  °F | °C
As of 1:55 PM on Thursday 27 Nov 2014 (Local Time) from KPHP Reporting Station
Broken Clouds Broken Clouds  
Wind Chill: 25°   Ceiling: 11000
Heat Index: 33°   Visibility: 10mi
Dew Point: 22°   Wind: 9mph
Humidity: 64%   Direction: 100°E
Pressure: 29.98"   Gusts: NA
Location:  44.62°N, 102.05°W
Report Text: KPHP 272055Z AUTO 10008KT 10SM BKN110 01/M06 A2998 RMK AO2 SLP175 T00061056 56042
Loading
Personal Weather Stations






























Interactive Weather Map New forecast layout! Learn more

10-Day Weather Forecast

Advertisements
Track Severe Weather on mobile